Time;durP1;ratioP1;P1;durP2;ratioP2;P2;SDS_P1;SDS_P2;PMS_P1;PMS_P2;Temp;Humidity;BMP_temperature;BMP_pressure;BME280_temperature;BME280_humidity;BME280_pressure;Samples;Min_cycle;Max_cycle;Signal;HPM_P1;HPM_P2
2024/01/24 00:00:48;;;;;;;1.50;1.37;;;16.40;61.30;17.40;100892.00;;;;5040877;28;20717;-49
2024/01/24 00:03:14;;;;;;;3.07;1.73;;;16.40;61.30;17.40;100903.00;;;;5040533;28;20206;-50
2024/01/24 00:05:40;;;;;;;2.07;1.73;;;16.40;61.30;17.40;100889.00;;;;5039467;28;20247;-50
2024/01/24 00:08:06;;;;;;;1.73;1.63;;;16.40;61.30;17.40;100886.00;;;;5041733;28;20230;-49
2024/01/24 00:10:31;;;;;;;1.70;1.60;;;16.40;61.30;17.40;100872.00;;;;5037689;28;20631;-49
2024/01/24 00:12:57;;;;;;;1.77;1.53;;;16.30;61.30;17.40;100874.00;;;;5042138;28;20176;-49
2024/01/24 00:15:23;;;;;;;3.00;1.83;;;16.40;61.40;17.40;100881.00;;;;5038682;28;20598;-50
2024/01/24 00:17:48;;;;;;;1.67;1.53;;;16.40;61.30;17.40;100860.00;;;;5040714;28;20189;-50
2024/01/24 00:20:14;;;;;;;1.47;1.37;;;16.30;61.30;17.40;100852.00;;;;5039771;28;20548;-48
2024/01/24 00:22:40;;;;;;;2.20;1.70;;;16.30;61.10;17.40;100854.00;;;;5039309;28;20181;-49
2024/01/24 00:25:06;;;;;;;1.87;1.70;;;16.40;61.40;17.40;100860.00;;;;5023061;28;20644;-49
2024/01/24 00:27:31;;;;;;;2.03;1.60;;;16.30;61.10;17.40;100870.00;;;;5038948;28;20196;-49
2024/01/24 00:29:57;;;;;;;2.80;1.83;;;16.40;61.30;17.40;100857.00;;;;5042502;28;20175;-49
2024/01/24 00:32:23;;;;;;;1.87;1.60;;;16.40;61.20;17.40;100861.00;;;;5038786;28;20180;-49
2024/01/24 00:34:49;;;;;;;1.70;1.60;;;16.40;61.10;17.40;100855.00;;;;5040266;28;20696;-49
2024/01/24 00:37:15;;;;;;;2.10;1.70;;;16.50;61.10;17.40;100835.00;;;;5039332;28;20236;-49
2024/01/24 00:39:40;;;;;;;1.50;1.40;;;16.40;61.00;17.40;100836.00;;;;5048754;28;20266;-51
2024/01/24 00:42:06;;;;;;;1.87;1.57;;;16.40;60.90;17.40;100833.00;;;;5044020;28;20186;-50
2024/01/24 00:44:32;;;;;;;1.60;1.50;;;16.40;61.70;17.40;100807.00;;;;5039557;28;20179;-50
2024/01/24 00:46:58;;;;;;;1.50;1.40;;;16.40;61.00;17.40;100818.00;;;;5038901;28;20214;-49
2024/01/24 00:49:23;;;;;;;2.00;1.57;;;16.40;61.00;17.40;100799.00;;;;5039378;28;20174;-49
2024/01/24 00:51:49;;;;;;;1.93;1.73;;;16.40;61.30;17.40;100797.00;;;;5043219;28;20210;-50
2024/01/24 00:54:15;;;;;;;2.57;1.80;;;16.30;61.10;17.40;100799.00;;;;5046050;28;20179;-49
2024/01/24 00:56:40;;;;;;;2.03;1.60;;;16.30;61.30;17.40;100791.00;;;;5039166;28;20203;-49
2024/01/24 00:59:06;;;;;;;1.90;1.63;;;16.30;61.20;17.40;100785.00;;;;5040467;28;20189;-49
2024/01/24 01:01:32;;;;;;;1.67;1.33;;;16.30;61.30;17.40;100802.00;;;;5036054;28;20290;-49
2024/01/24 01:03:57;;;;;;;2.20;1.80;;;16.30;61.50;17.40;100803.00;;;;5040396;28;20652;-49
2024/01/24 01:06:23;;;;;;;1.57;1.37;;;16.30;61.60;17.40;100806.00;;;;5036754;28;20246;-49
2024/01/24 01:08:49;;;;;;;2.13;1.40;;;16.30;61.50;17.40;100809.00;;;;5037970;28;20190;-49
2024/01/24 01:11:16;;;;;;;1.83;1.70;;;16.30;61.60;17.40;100802.00;;;;5039195;28;20258;-50
2024/01/24 01:13:42;;;;;;;1.90;1.53;;;16.30;61.50;17.40;100801.00;;;;5039525;28;20517;-49
2024/01/24 01:16:08;;;;;;;1.70;1.60;;;16.30;61.70;17.40;100787.00;;;;5039649;28;20210;-49
2024/01/24 01:18:33;;;;;;;2.33;1.63;;;16.20;61.60;17.40;100797.00;;;;5036476;28;20189;-49
2024/01/24 01:20:59;;;;;;;2.37;1.80;;;16.30;61.70;17.40;100804.00;;;;5040226;28;20193;-49
2024/01/24 01:23:25;;;;;;;1.80;1.70;;;16.30;61.80;17.40;100809.00;;;;5036567;28;20595;-49
2024/01/24 01:25:52;;;;;;;2.00;1.70;;;16.20;61.60;17.40;100819.00;;;;5038703;28;20297;-50
2024/01/24 01:28:17;;;;;;;2.07;1.60;;;16.20;61.60;17.40;100823.00;;;;5037339;28;20188;-50
2024/01/24 01:30:43;;;;;;;1.77;1.47;;;16.20;61.90;17.40;100834.00;;;;5039815;28;20183;-50
2024/01/24 01:33:09;;;;;;;1.60;1.50;;;16.30;62.00;17.40;100808.00;;;;5042813;28;20179;-50
2024/01/24 01:35:35;;;;;;;1.60;1.50;;;16.30;61.80;17.40;100806.00;;;;5036347;28;20730;-50
2024/01/24 01:38:01;;;;;;;1.80;1.70;;;16.30;61.70;17.40;100813.00;;;;5039704;28;20278;-50
2024/01/24 01:40:27;;;;;;;1.67;1.57;;;16.30;61.60;17.40;100803.00;;;;5036294;28;20677;-50
2024/01/24 01:42:53;;;;;;;1.97;1.63;;;16.30;61.40;17.40;100786.00;;;;5038932;28;20811;-49
2024/01/24 01:45:19;;;;;;;1.67;1.57;;;16.30;61.50;17.40;100785.00;;;;5035479;28;20208;-49
2024/01/24 01:47:46;;;;;;;1.63;1.53;;;16.30;61.40;17.40;100754.00;;;;5037629;28;20546;-49
2024/01/24 01:50:14;;;;;;;1.80;1.60;;;16.30;61.40;17.40;100748.00;;;;5020716;28;20185;-49
2024/01/24 01:52:40;;;;;;;1.50;1.40;;;16.30;61.40;17.40;100750.00;;;;5035843;28;20552;-50
2024/01/24 01:55:06;;;;;;;1.90;1.60;;;16.30;61.40;17.40;100742.00;;;;5037477;28;20269;-49
2024/01/24 01:57:33;;;;;;;1.50;1.37;;;16.30;61.30;17.40;100705.00;;;;5035181;28;20198;-50
2024/01/24 01:59:59;;;;;;;1.63;1.53;;;16.30;61.30;17.40;100728.00;;;;5027515;28;20204;-49
2024/01/24 02:02:25;;;;;;;1.57;1.47;;;16.30;61.30;17.40;100731.00;;;;5035141;28;20588;-51
2024/01/24 02:04:50;;;;;;;1.80;1.60;;;16.30;61.30;17.40;100735.00;;;;5038527;28;20183;-49
2024/01/24 02:07:16;;;;;;;1.77;1.60;;;16.30;61.30;17.40;100732.00;;;;5037335;28;20209;-50
2024/01/24 02:09:42;;;;;;;1.80;1.60;;;16.30;61.30;17.40;100732.00;;;;5037185;28;20190;-50
2024/01/24 02:12:08;;;;;;;1.70;1.60;;;16.30;61.30;17.40;100734.00;;;;5038397;28;20192;-49
2024/01/24 02:14:34;;;;;;;1.83;1.50;;;16.30;61.30;17.40;100741.00;;;;5035632;28;20576;-49
2024/01/24 02:16:59;;;;;;;1.57;1.47;;;16.30;61.20;17.40;100743.00;;;;5039338;28;20202;-49
2024/01/24 02:19:26;;;;;;;2.10;1.40;;;16.40;61.30;17.40;100754.00;;;;5035714;28;20186;-50
2024/01/24 02:21:51;;;;;;;1.60;1.50;;;16.30;61.10;17.40;100752.00;;;;5038162;28;20781;-49
2024/01/24 02:24:17;;;;;;;1.50;1.40;;;16.30;61.20;17.40;100745.00;;;;5036835;28;20178;-49
2024/01/24 02:26:43;;;;;;;2.00;1.43;;;16.30;61.30;17.40;100750.00;;;;5036780;28;20313;-49
2024/01/24 02:29:09;;;;;;;2.00;1.50;;;16.30;61.20;17.40;100754.00;;;;5038202;28;20260;-50
2024/01/24 02:31:34;;;;;;;1.37;1.27;;;16.30;61.30;17.40;100759.00;;;;5045587;28;20625;-52
2024/01/24 02:34:00;;;;;;;1.57;1.47;;;16.30;61.40;17.40;100752.00;;;;5041006;28;20183;-49
2024/01/24 02:36:26;;;;;;;1.50;1.40;;;16.30;61.40;17.40;100749.00;;;;5036860;28;20567;-49
2024/01/24 02:38:52;;;;;;;1.23;1.13;;;16.30;61.40;17.40;100764.00;;;;5037390;28;20222;-49
2024/01/24 02:41:19;;;;;;;1.73;1.63;;;16.30;61.40;17.40;100739.00;;;;5036820;28;20229;-49
2024/01/24 02:43:44;;;;;;;1.50;1.40;;;16.20;61.30;17.40;100736.00;;;;5041168;28;20569;-52
2024/01/24 02:46:10;;;;;;;1.50;1.40;;;16.30;61.40;17.40;100720.00;;;;5045232;28;20209;-50
2024/01/24 02:48:36;;;;;;;1.47;1.30;;;16.20;61.30;17.40;100722.00;;;;5036410;28;20184;-49
2024/01/24 02:51:02;;;;;;;1.87;1.60;;;16.30;61.30;17.40;100706.00;;;;5039175;28;20178;-49
2024/01/24 02:53:27;;;;;;;1.27;1.17;;;16.20;61.30;17.40;100708.00;;;;5035893;28;20178;-51
2024/01/24 02:55:53;;;;;;;1.87;1.50;;;16.30;61.40;17.40;100708.00;;;;5037909;28;20268;-49
2024/01/24 02:58:19;;;;;;;1.50;1.40;;;16.20;61.30;17.40;100702.00;;;;5036487;28;20575;-49
2024/01/24 03:00:45;;;;;;;1.97;1.67;;;16.20;61.50;17.40;100697.00;;;;5035725;28;20187;-49
2024/01/24 03:03:10;;;;;;;1.60;1.50;;;16.30;61.60;17.40;100682.00;;;;5038009;28;20191;-49
2024/01/24 03:05:36;;;;;;;1.57;1.47;;;16.30;61.60;17.40;100607.00;;;;5036247;28;20212;-49
2024/01/24 03:08:02;;;;;;;1.50;1.40;;;16.20;61.50;17.40;100683.00;;;;5041512;28;20197;-50
2024/01/24 03:10:28;;;;;;;1.43;1.33;;;16.30;61.60;17.40;100676.00;;;;5039701;28;20169;-51
2024/01/24 03:12:54;;;;;;;1.50;1.40;;;16.30;61.60;17.40;100685.00;;;;5042462;28;20240;-49
2024/01/24 03:15:20;;;;;;;1.40;1.30;;;16.20;61.60;17.40;100666.00;;;;5039853;28;20180;-49
2024/01/24 03:17:46;;;;;;;1.77;1.30;;;16.20;61.60;17.40;100681.00;;;;5039519;28;20179;-49
2024/01/24 03:20:13;;;;;;;1.57;1.47;;;16.20;61.80;17.40;100663.00;;;;5040789;28;20176;-50
2024/01/24 03:22:42;;;;;;;1.50;1.40;;;16.20;61.70;17.40;100683.00;;;;5038628;28;20224;-50
2024/01/24 03:25:08;;;;;;;1.40;1.30;;;16.20;61.70;17.40;100680.00;;;;5041338;28;20209;-50
2024/01/24 03:27:33;;;;;;;1.40;1.30;;;16.20;61.80;17.40;100695.00;;;;5039676;28;20192;-50
2024/01/24 03:29:59;;;;;;;1.47;1.27;;;16.20;61.90;17.40;100677.00;;;;5044531;28;20594;-51
2024/01/24 03:32:25;;;;;;;1.60;1.30;;;16.20;61.80;17.40;100670.00;;;;5040124;28;20175;-49
2024/01/24 03:34:58;;;;;;;1.80;1.40;;;16.20;61.80;17.40;100669.00;;;;5040950;28;20179;-49
2024/01/24 03:37:24;;;;;;;2.00;1.30;;;16.20;61.90;17.40;100660.00;;;;5035084;28;20202;-50
2024/01/24 03:39:50;;;;;;;1.20;1.20;;;16.20;61.90;17.40;100659.00;;;;5041568;28;20684;-50
2024/01/24 03:42:16;;;;;;;0.90;0.90;;;16.20;61.90;17.40;100677.00;;;;5040466;28;20550;-49
2024/01/24 03:44:41;;;;;;;1.47;1.37;;;16.20;61.90;17.40;100667.00;;;;5038577;28;20188;-50
2024/01/24 03:47:07;;;;;;;1.43;1.30;;;16.20;61.80;17.40;100671.00;;;;5042512;28;20206;-50
2024/01/24 03:49:33;;;;;;;1.00;1.00;;;16.20;61.90;17.40;100635.00;;;;5039562;28;20177;-49
2024/01/24 03:51:58;;;;;;;1.10;1.00;;;16.20;61.90;17.40;100661.00;;;;5034275;28;20547;-49
2024/01/24 03:54:24;;;;;;;1.50;1.40;;;16.20;62.80;17.40;100666.00;;;;5038824;28;20873;-50
2024/01/24 03:56:50;;;;;;;1.80;1.20;;;16.20;62.00;17.30;100680.00;;;;5040739;28;20315;-50
2024/01/24 03:59:16;;;;;;;1.10;1.00;;;16.20;62.00;17.30;100672.00;;;;5040040;28;20202;-49
2024/01/24 04:01:42;;;;;;;1.57;1.30;;;16.20;62.00;17.40;100653.00;;;;5040273;28;20718;-50
2024/01/24 04:04:08;;;;;;;1.43;1.00;;;16.20;62.20;17.30;100655.00;;;;5040915;28;20190;-50
2024/01/24 04:06:35;;;;;;;0.87;0.77;;;16.20;62.30;17.40;100666.00;;;;5039322;28;20203;-49
2024/01/24 04:09:00;;;;;;;1.07;0.97;;;16.20;62.20;17.40;100670.00;;;;5041817;28;20180;-50
2024/01/24 04:11:26;;;;;;;0.90;0.90;;;16.20;62.10;17.30;100674.00;;;;5039668;28;20541;-49
2024/01/24 04:13:53;;;;;;;1.13;1.03;;;16.20;62.30;17.40;100702.00;;;;5042120;28;20173;-49
2024/01/24 04:16:19;;;;;;;1.97;1.20;;;16.20;62.70;17.30;100699.00;;;;5040309;28;20204;-50
2024/01/24 04:18:44;;;;;;;2.03;1.23;;;16.10;63.40;17.30;100700.00;;;;5038019;28;20245;-51
2024/01/24 04:21:10;;;;;;;1.30;1.13;;;16.10;63.60;17.30;100721.00;;;;5041452;28;20183;-51
2024/01/24 04:23:36;;;;;;;1.30;1.20;;;16.10;63.30;17.30;100699.00;;;;5052948;28;20181;-50
2024/01/24 04:26:04;;;;;;;0.97;0.80;;;16.10;63.00;17.30;100728.00;;;;5046450;28;20212;-50
2024/01/24 04:28:33;;;;;;;2.57;1.17;;;16.10;63.30;17.30;100710.00;;;;5036202;28;20465;-51
2024/01/24 04:30:59;;;;;;;3.10;0.90;;;16.10;63.50;17.30;100730.00;;;;5040178;28;20181;-51
2024/01/24 04:33:24;;;;;;;1.83;1.17;;;16.10;63.10;17.30;100728.00;;;;5040531;28;20202;-50
2024/01/24 04:35:50;;;;;;;1.00;0.97;;;16.10;63.00;17.30;100746.00;;;;5047608;28;20238;-50
2024/01/24 04:38:16;;;;;;;1.77;1.10;;;16.20;63.10;17.30;100702.00;;;;5050409;28;20217;-50
2024/01/24 04:40:42;;;;;;;1.20;1.10;;;16.10;63.60;17.40;100718.00;;;;5039762;28;20184;-49
2024/01/24 04:43:08;;;;;;;1.33;1.23;;;16.20;62.90;17.30;100715.00;;;;5041402;28;20185;-50
2024/01/24 04:45:34;;;;;;;1.20;1.10;;;16.10;62.80;17.30;100711.00;;;;5038148;28;20223;-50
2024/01/24 04:48:00;;;;;;;1.50;1.20;;;16.20;62.90;17.40;100731.00;;;;5042237;28;20597;-50
2024/01/24 04:50:25;;;;;;;1.13;0.90;;;16.10;62.80;17.40;100739.00;;;;5039059;28;20667;-50
2024/01/24 04:52:51;;;;;;;1.07;1.07;;;16.10;62.70;17.30;100740.00;;;;5041330;28;20187;-50
2024/01/24 04:55:17;;;;;;;0.83;0.83;;;16.20;62.80;17.30;100745.00;;;;5039749;28;20645;-50
2024/01/24 04:57:43;;;;;;;1.03;1.00;;;16.20;62.70;17.40;100747.00;;;;5039964;28;20185;-50
2024/01/24 05:00:11;;;;;;;1.77;1.00;;;16.20;62.70;17.40;100735.00;;;;5041018;28;20198;-50
2024/01/24 05:02:37;;;;;;;1.00;1.00;;;16.20;62.70;17.30;100750.00;;;;5038994;28;20560;-49
2024/01/24 05:05:06;;;;;;;0.93;0.87;;;16.20;62.80;17.30;100768.00;;;;5041548;28;20180;-50
2024/01/24 05:07:35;;;;;;;1.00;1.00;;;16.10;62.80;17.30;100744.00;;;;5038631;28;20209;-50
2024/01/24 05:10:04;;;;;;;0.73;0.73;;;16.20;63.10;17.40;100762.00;;;;5034667;28;20663;-50
2024/01/24 05:12:31;;;;;;;0.70;0.70;;;16.20;63.80;17.40;100789.00;;;;5038200;28;20175;-50
2024/01/24 05:14:57;;;;;;;1.43;0.90;;;16.20;63.10;17.40;100781.00;;;;5042081;28;20180;-51
2024/01/24 05:17:22;;;;;;;0.80;0.80;;;16.10;62.90;17.40;100757.00;;;;5040344;28;20619;-50
2024/01/24 05:19:48;;;;;;;1.03;1.03;;;16.20;63.10;17.40;100777.00;;;;5038969;28;20675;-50
2024/01/24 05:22:15;;;;;;;1.83;0.87;;;16.20;63.20;17.40;100770.00;;;;5039986;28;20175;-49
2024/01/24 05:24:44;;;;;;;0.90;0.90;;;16.10;63.00;17.40;100778.00;;;;5038877;28;20177;-50
2024/01/24 05:27:10;;;;;;;0.77;0.77;;;16.20;63.10;17.40;100768.00;;;;5040448;28;20467;-49
2024/01/24 05:29:36;;;;;;;0.87;0.87;;;16.20;63.10;17.40;100776.00;;;;5038048;28;20262;-51
2024/01/24 05:32:02;;;;;;;1.40;0.70;;;16.20;63.20;17.40;100768.00;;;;5041550;28;20242;-51
2024/01/24 05:34:28;;;;;;;0.80;0.80;;;16.10;63.20;17.40;100777.00;;;;5037894;28;20592;-49
2024/01/24 05:36:54;;;;;;;1.40;0.70;;;16.10;63.50;17.40;100761.00;;;;5040657;28;20229;-50
2024/01/24 05:39:20;;;;;;;2.20;1.00;;;16.10;63.50;17.40;100797.00;;;;5037854;28;20186;-50
2024/01/24 05:41:45;;;;;;;0.70;0.70;;;16.10;63.50;17.40;100801.00;;;;5039312;28;20286;-50
2024/01/24 05:44:11;;;;;;;1.13;1.03;;;16.10;63.60;17.40;100809.00;;;;5039962;28;20189;-51
2024/01/24 05:46:37;;;;;;;4.20;1.07;;;16.10;63.60;17.40;100800.00;;;;5037821;28;20665;-50
2024/01/24 05:49:02;;;;;;;4.07;1.07;;;16.10;63.50;17.40;100789.00;;;;5041399;28;20182;-49
2024/01/24 05:51:28;;;;;;;2.10;1.10;;;16.10;63.20;17.40;100786.00;;;;5031574;28;20256;-50
2024/01/24 05:53:54;;;;;;;2.47;0.97;;;16.20;63.30;17.40;100777.00;;;;5036006;28;20194;-50
2024/01/24 05:56:20;;;;;;;0.60;0.60;;;16.20;63.20;17.40;100770.00;;;;5037861;28;20230;-50
2024/01/24 05:58:45;;;;;;;0.60;0.60;;;16.10;63.10;17.40;100774.00;;;;5045940;28;20246;-50
2024/01/24 06:01:11;;;;;;;1.13;1.03;;;16.10;63.10;17.40;100788.00;;;;5040790;28;20830;-50
2024/01/24 06:03:37;;;;;;;0.83;0.83;;;16.10;63.20;17.40;100800.00;;;;5038133;28;20716;-50
2024/01/24 06:06:03;;;;;;;0.73;0.73;;;16.10;63.10;17.40;100808.00;;;;5040376;28;20223;-49
2024/01/24 06:08:31;;;;;;;1.07;1.00;;;16.10;63.30;17.30;100827.00;;;;5036292;28;20511;-49
2024/01/24 06:10:58;;;;;;;1.07;0.77;;;16.10;63.10;17.30;100830.00;;;;5040490;28;20218;-49
2024/01/24 06:13:24;;;;;;;0.80;0.70;;;16.20;63.30;17.30;100837.00;;;;5038019;28;20560;-53
2024/01/24 06:15:51;;;;;;;1.90;0.93;;;16.10;63.10;17.30;100857.00;;;;5047769;28;20202;-54
2024/01/24 06:18:17;;;;;;;1.50;0.87;;;16.10;63.10;17.40;100860.00;;;;5041114;28;20193;-49
2024/01/24 06:20:43;;;;;;;0.63;0.60;;;16.10;62.90;17.40;100874.00;;;;5039360;28;20266;-50
2024/01/24 06:23:09;;;;;;;1.57;1.10;;;16.10;63.00;17.40;100859.00;;;;5040511;28;20278;-49
2024/01/24 06:25:35;;;;;;;1.03;0.93;;;16.10;62.80;17.40;100872.00;;;;5034054;28;20692;-50
2024/01/24 06:28:00;;;;;;;1.20;1.10;;;16.10;62.80;17.30;100906.00;;;;5042507;28;20211;-49
2024/01/24 06:30:26;;;;;;;1.73;1.37;;;16.10;62.80;17.30;100894.00;;;;5048491;28;20175;-50
2024/01/24 06:32:52;;;;;;;1.10;1.10;;;16.10;62.70;17.30;100892.00;;;;5040137;28;20670;-50
2024/01/24 06:35:18;;;;;;;1.67;1.30;;;16.10;62.60;17.30;100854.00;;;;5037911;28;20557;-50
2024/01/24 06:37:43;;;;;;;1.63;1.20;;;16.10;62.60;17.30;100872.00;;;;5037060;28;20184;-50
2024/01/24 06:40:09;;;;;;;2.50;1.57;;;16.10;62.50;17.40;100872.00;;;;5039871;28;20211;-50
2024/01/24 06:42:37;;;;;;;2.10;1.27;;;16.10;62.60;17.40;100889.00;;;;5039732;28;20204;-50
2024/01/24 06:45:03;;;;;;;1.43;1.23;;;16.10;62.50;17.40;100896.00;;;;5043889;28;20652;-50
2024/01/24 06:47:29;;;;;;;1.63;1.30;;;16.10;62.50;17.40;100908.00;;;;5039532;28;20198;-49
2024/01/24 06:49:54;;;;;;;1.60;1.37;;;16.10;62.50;17.40;100898.00;;;;5043683;28;20653;-50
2024/01/24 06:52:20;;;;;;;1.70;1.30;;;16.10;62.50;17.40;100913.00;;;;5040662;28;20180;-49
2024/01/24 06:54:46;;;;;;;1.97;1.40;;;16.10;62.50;17.40;100913.00;;;;5036980;28;20181;-51
2024/01/24 06:57:12;;;;;;;1.47;1.37;;;16.10;62.60;17.40;100932.00;;;;5041394;28;20212;-49
2024/01/24 06:59:38;;;;;;;1.50;1.20;;;16.10;62.50;17.40;100915.00;;;;5041318;28;20186;-50
2024/01/24 07:02:05;;;;;;;1.97;1.60;;;16.10;62.50;17.40;100935.00;;;;5044087;28;20187;-50
2024/01/24 07:04:31;;;;;;;1.80;1.60;;;16.00;62.50;17.40;100946.00;;;;5040766;28;20192;-50
2024/01/24 07:06:57;;;;;;;3.53;1.80;;;16.00;62.40;17.40;100940.00;;;;5042325;28;20239;-49
2024/01/24 07:09:23;;;;;;;2.10;1.60;;;16.00;62.40;17.40;100957.00;;;;5041611;28;20675;-50
2024/01/24 07:11:49;;;;;;;2.00;1.60;;;16.10;62.50;17.40;100967.00;;;;5043060;28;20204;-50
2024/01/24 07:14:15;;;;;;;3.10;1.87;;;16.00;62.30;17.40;100970.00;;;;5042539;28;20657;-50
2024/01/24 07:16:43;;;;;;;2.97;1.77;;;16.00;62.30;17.40;100972.00;;;;5039348;28;20226;-50
2024/01/24 07:19:09;;;;;;;2.00;1.63;;;16.00;62.40;17.30;100982.00;;;;5037300;28;20192;-51
2024/01/24 07:21:35;;;;;;;2.17;1.57;;;16.00;62.40;17.30;100980.00;;;;5040387;28;20178;-50
2024/01/24 07:24:00;;;;;;;2.23;1.70;;;16.00;62.10;17.30;100994.00;;;;5043911;28;20711;-51
2024/01/24 07:26:28;;;;;;;2.70;1.70;;;16.00;62.20;17.30;101011.00;;;;5039603;28;20207;-50
2024/01/24 07:28:54;;;;;;;1.60;1.40;;;16.00;62.30;17.30;101010.00;;;;5038893;28;20810;-50
2024/01/24 07:31:19;;;;;;;2.40;1.80;;;16.00;62.30;17.30;100999.00;;;;5041458;28;20212;-50
2024/01/24 07:33:45;;;;;;;3.33;1.90;;;16.00;62.20;17.30;100990.00;;;;5041914;28;20411;-50
2024/01/24 07:36:11;;;;;;;2.27;1.77;;;16.00;62.10;17.30;100987.00;;;;5042106;28;20313;-49
2024/01/24 07:38:37;;;;;;;3.50;2.07;;;16.00;62.10;17.30;100981.00;;;;5039458;28;20180;-50
2024/01/24 07:41:04;;;;;;;3.03;2.10;;;16.00;62.10;17.30;101013.00;;;;5045621;28;20191;-49
2024/01/24 07:43:30;;;;;;;3.10;1.90;;;16.00;62.00;17.30;101015.00;;;;5039969;28;20675;-50
2024/01/24 07:45:56;;;;;;;3.40;2.00;;;16.00;62.00;17.30;100997.00;;;;5041039;28;20291;-50
2024/01/24 07:48:21;;;;;;;4.07;2.00;;;16.00;62.00;17.30;101005.00;;;;5039432;28;20188;-50
2024/01/24 07:50:48;;;;;;;2.70;1.90;;;16.00;62.80;17.30;101008.00;;;;5041756;28;20671;-49
2024/01/24 07:53:14;;;;;;;3.33;1.80;;;16.00;62.00;17.30;101017.00;;;;5029028;28;20184;-50
2024/01/24 07:55:39;;;;;;;2.60;1.67;;;16.00;61.90;17.30;101015.00;;;;5023009;28;20573;-50
2024/01/24 07:58:05;;;;;;;4.50;2.10;;;16.00;62.00;17.30;101024.00;;;;5032047;28;20852;-52
2024/01/24 08:00:31;;;;;;;3.00;1.73;;;16.00;62.00;17.30;101048.00;;;;5036109;28;20196;-50
2024/01/24 08:02:58;;;;;;;4.20;2.20;;;15.90;61.80;17.30;101049.00;;;;5039409;28;20266;-50
2024/01/24 08:05:24;;;;;;;2.33;1.93;;;16.00;62.00;17.30;101039.00;;;;5038047;28;20183;-49
2024/01/24 08:07:50;;;;;;;2.30;1.83;;;16.00;62.00;17.20;101039.00;;;;5037076;28;20215;-54
2024/01/24 08:10:16;;;;;;;3.27;2.00;;;15.90;61.80;17.20;101031.00;;;;5051283;28;20537;-54
2024/01/24 08:12:42;;;;;;;3.00;1.90;;;16.00;62.00;17.30;101035.00;;;;5045598;28;20195;-50
2024/01/24 08:15:08;;;;;;;3.60;2.17;;;16.00;61.90;17.20;101047.00;;;;5046227;28;20182;-54
2024/01/24 08:17:36;;;;;;;4.57;2.40;;;16.00;61.90;17.20;101063.00;;;;5044014;28;20246;-49
2024/01/24 08:20:04;;;;;;;3.03;2.07;;;15.90;61.80;17.20;101066.00;;;;5036404;28;20182;-50
2024/01/24 08:22:30;;;;;;;3.83;2.20;;;16.00;61.90;17.20;101074.00;;;;5044827;28;20194;-50
2024/01/24 08:24:56;;;;;;;3.30;2.20;;;16.00;61.90;17.20;101090.00;;;;5047404;28;20197;-55
2024/01/24 08:27:21;;;;;;;4.13;2.10;;;16.00;62.00;17.20;101079.00;;;;5020189;28;20207;-50
2024/01/24 08:29:47;;;;;;;3.20;2.20;;;15.90;61.90;17.20;101075.00;;;;5027750;28;20796;-50
2024/01/24 08:32:13;;;;;;;2.53;1.80;;;15.90;62.50;17.20;101049.00;;;;5037861;28;20667;-50
2024/01/24 08:34:38;;;;;;;3.23;1.97;;;15.90;62.30;17.20;101074.00;;;;5036221;28;20172;-49
2024/01/24 08:37:05;;;;;;;3.40;2.13;;;15.90;62.30;17.20;101095.00;;;;5039753;28;20204;-50
2024/01/24 08:39:32;;;;;;;3.30;2.20;;;15.90;62.40;17.20;101095.00;;;;5038457;28;20252;-49
2024/01/24 08:41:58;;;;;;;4.93;2.63;;;15.90;62.30;17.20;101095.00;;;;5038556;28;20188;-49
2024/01/24 08:44:24;;;;;;;4.30;2.37;;;15.90;62.30;17.20;101110.00;;;;5038493;28;20853;-51
2024/01/24 08:46:50;;;;;;;4.63;2.37;;;16.00;62.70;17.20;101101.00;;;;5038157;28;20271;-50
2024/01/24 08:49:16;;;;;;;4.70;2.40;;;15.90;62.40;17.20;101106.00;;;;5031519;28;20285;-50
2024/01/24 08:51:42;;;;;;;4.93;2.40;;;15.90;62.40;17.20;101119.00;;;;5036813;28;20712;-50
2024/01/24 08:54:08;;;;;;;3.93;2.30;;;15.90;62.30;17.20;101114.00;;;;5038580;28;20182;-50
2024/01/24 08:56:34;;;;;;;4.10;2.43;;;15.90;62.70;16.90;101139.00;;;;5037849;28;20191;-49
2024/01/24 08:58:59;;;;;;;4.00;2.20;;;16.00;62.70;17.20;101143.00;;;;5036525;28;20187;-49
2024/01/24 09:01:26;;;;;;;4.37;2.57;;;16.00;62.70;17.20;101129.00;;;;5038359;28;20263;-49
2024/01/24 09:03:51;;;;;;;4.40;2.43;;;16.10;62.50;17.20;101140.00;;;;5035776;28;20195;-49
2024/01/24 09:06:18;;;;;;;3.83;2.33;;;16.20;62.50;17.20;101143.00;;;;5039057;28;20665;-49
2024/01/24 09:08:44;;;;;;;2.97;2.37;;;16.30;62.20;17.30;101170.00;;;;5036317;28;20563;-49
2024/01/24 09:11:10;;;;;;;4.40;2.40;;;16.50;62.10;17.30;101167.00;;;;5040775;28;20184;-49
2024/01/24 09:13:36;;;;;;;3.93;2.40;;;16.60;61.90;17.40;101173.00;;;;5032408;28;20684;-50
2024/01/24 09:16:01;;;;;;;3.83;2.43;;;16.70;61.70;17.50;101176.00;;;;5038317;28;20198;-50
2024/01/24 09:18:27;;;;;;;3.87;2.40;;;16.70;61.60;17.50;101165.00;;;;5035837;28;20217;-49
2024/01/24 09:20:53;;;;;;;4.63;2.57;;;16.80;61.40;17.60;101168.00;;;;5040500;28;20182;-49
2024/01/24 09:23:19;;;;;;;3.93;2.63;;;16.90;61.00;17.60;101170.00;;;;5037820;28;20650;-49
2024/01/24 09:25:44;;;;;;;4.17;2.37;;;17.00;61.00;17.70;101169.00;;;;5038824;28;20221;-49
2024/01/24 09:28:10;;;;;;;3.77;2.60;;;17.00;61.00;17.70;101155.00;;;;5037763;28;20187;-49
2024/01/24 09:30:36;;;;;;;6.40;2.40;;;17.10;61.10;17.80;101165.00;;;;5033619;28;20182;-49
2024/01/24 09:33:03;;;;;;;5.63;2.33;;;17.20;61.50;17.80;101181.00;;;;5040146;28;20250;-49
2024/01/24 09:35:30;;;;;;;6.43;2.73;;;17.20;61.20;17.90;101196.00;;;;5037132;28;20692;-49
2024/01/24 09:37:55;;;;;;;6.57;2.80;;;17.20;61.20;17.90;101210.00;;;;5039388;28;20181;-49
2024/01/24 09:40:21;;;;;;;3.43;2.40;;;17.30;61.40;18.00;101214.00;;;;5039409;28;20658;-49
2024/01/24 09:42:47;;;;;;;4.90;2.60;;;17.30;61.40;18.00;101203.00;;;;5038667;28;20565;-50
2024/01/24 09:45:16;;;;;;;11.33;2.90;;;17.30;61.40;18.00;101202.00;;;;5035560;28;20186;-50
2024/01/24 09:47:42;;;;;;;3.90;2.47;;;17.40;61.50;18.10;101203.00;;;;5032698;28;20206;-49
2024/01/24 09:50:08;;;;;;;4.73;2.60;;;17.40;61.30;18.10;101214.00;;;;5006258;28;20164;-49
2024/01/24 09:52:34;;;;;;;5.43;2.60;;;17.50;61.30;18.20;101236.00;;;;5036279;28;20214;-50
2024/01/24 09:55:04;;;;;;;5.73;2.83;;;17.60;61.50;18.20;101234.00;;;;5041240;28;20201;-48
2024/01/24 09:57:31;;;;;;;4.90;2.57;;;17.60;61.20;18.30;101239.00;;;;5039678;28;20202;-49
2024/01/24 09:59:56;;;;;;;4.03;2.70;;;17.60;61.20;18.30;101246.00;;;;5040320;28;20192;-50
2024/01/24 10:02:24;;;;;;;4.80;2.50;;;17.70;61.10;18.30;101254.00;;;;5037976;28;20183;-59
2024/01/24 10:04:50;;;;;;;4.97;2.63;;;17.70;61.00;18.40;101256.00;;;;5019119;28;20166;-50
2024/01/24 10:07:16;;;;;;;5.00;2.53;;;17.80;60.90;18.40;101261.00;;;;5022889;28;20217;-50
2024/01/24 10:09:41;;;;;;;3.87;2.60;;;17.80;60.90;18.40;101265.00;;;;5038079;28;20193;-50
2024/01/24 10:12:08;;;;;;;5.67;2.67;;;17.90;61.00;18.50;101271.00;;;;5041922;28;20188;-49
2024/01/24 10:14:33;;;;;;;5.90;2.73;;;17.80;60.70;18.50;101268.00;;;;5037889;28;20179;-49
2024/01/24 10:16:59;;;;;;;4.70;2.73;;;17.90;60.70;18.50;101252.00;;;;5038571;28;20223;-49
2024/01/24 10:19:25;;;;;;;4.53;2.80;;;17.90;60.60;18.60;101268.00;;;;5043224;28;20187;-50
2024/01/24 10:21:52;;;;;;;5.53;2.73;;;18.00;60.50;18.60;101266.00;;;;5044242;28;20252;-53
2024/01/24 10:24:18;;;;;;;4.93;3.00;;;18.00;60.50;18.60;101282.00;;;;5040468;28;20182;-49
2024/01/24 10:26:46;;;;;;;5.27;2.90;;;18.00;60.30;18.60;101280.00;;;;5039562;28;20268;-49
2024/01/24 10:29:12;;;;;;;3.83;2.70;;;18.00;60.30;18.70;101277.00;;;;5041129;28;20188;-49
2024/01/24 10:31:38;;;;;;;3.60;2.57;;;18.00;60.30;18.70;101281.00;;;;5038039;28;20182;-50
2024/01/24 10:34:06;;;;;;;6.10;3.20;;;18.00;60.40;18.70;101291.00;;;;5039896;28;20216;-50
2024/01/24 10:36:38;;;;;;;4.40;2.83;;;18.00;60.40;18.70;101289.00;;;;5036830;28;20571;-50
2024/01/24 10:39:04;;;;;;;5.53;2.83;;;18.00;60.50;18.70;101293.00;;;;5035076;28;20687;-51
2024/01/24 10:41:37;;;;;;;5.17;2.80;;;18.00;60.30;18.70;101294.00;;;;5019695;28;20675;-50